ACT        NSW        VIC        QLD        SA        WA        TAS        NT        INFO        CALC            by VK5ZD

  Atmospheric Gas Attenuation - ITU Rec 676-11   --------------- db/100km ---------------
SA Stations Date Time Temp RH % AH g/m3 Dew Point Wind Direction Speed kph Gust kph Barometer mB Rainfall Since 9am 24GHz 47GHz 76GHz 122GHz 134GHz 241GHz
Adelaide (West Terrace / Ngayirdapira) 15 00:00 12 92 9.81 10.7 4 9 1016 4.6 22.3 28.6 45.9 120.8 117.7 405.8
Adelaide Airport 15 00:00 12.2 87 9.39 10.1 11 13 1016.3 0.8 21.4 27.8 44.0 115.7 111.6 384.3
Clare 15 00:00 11.5 97 10.02 11 11 20 1015.6 4.8 22.8 29.1 47.1 124.0 121.5 418.9
Edinburgh 15 00:00 12.6 95 10.51 11.8 0 0 1016 0.8 23.8 29.6 48.6 127.9 126.8 437.5
Kadina 15 00:00 12.5 92 10.12 11.2 24 32 1016.7 0.8 22.9 29.0 47.0 123.7 121.4 418.8
Kuitpo 15 00:00 8.5 100 8.54 8.5 17 24 1015.2 2 19.7 27.5 42.4 111.3 104.7 359.9
Mount Crawford 15 00:00 8.5 98 8.37 8.2 17 24 1015.5 4.6 19.4 27.2 41.7 109.4 102.4 351.6
Mount Lofty 15 00:00 8 99 8.19 7.8 6 7 1013.1 13.6 19.0 26.9 41.1 107.8 100.3 344.3
Noarlunga 15 00:00 11.1 95 9.57 10.3 9 11 1013.1 19.4 21.8 28.3 45.3 119.1 115.4 397.7
Nuriootpa 15 00:00 10.9 97 9.65 10.4 6 7 1016 3 22.0 28.7 45.9 120.7 117.1 403.6
Parafield 15 00:00 13.1 84 9.59 10.5 9 9 1015.9 2.8 21.7 27.8 44.4 116.6 113.0 389.4
Roseworthy 15 00:00 9.1 97 8.61 8.6 7 9 1015.5 3.2 19.8 27.4 42.4 111.3 104.9 360.7
Snowtown 15 00:00 13.2 92 10.56 11.9 19 24 1016 1.8 23.8 29.5 48.5 127.5 126.5 436.6
---
Arkaroola 14 15:00 20.3 40 7.03 6.4 17 1013.1 0 16.0 21.8 31.1 81.3 72.1 247.2
Cape Borda 15 00:00 10.3 95 9.1 9.5 20 24 1019 0.4 20.8 28.0 44.0 115.6 110.5 380.2
Cape Jaffa 15 00:00 7.4 89 7.08 5.7 15 19 1019.2 3.8 16.6 25.5 37.0 96.7 86.1 294.4
Cape Willoughby 15 00:00 10.7 90 8.84 9.1 30 37 1018.1 7.6 20.3 27.4 42.6 111.9 106.2 365.2
Ceduna 15 00:00 14.3 96 11.79 13.7 15 19 1020.6 1.2 26.4 31.5 53.4 140.7 142.9 493.9
Cleve Airport 15 00:00 11.5 94 9.71 10.6 17 20 1018.4 0.4 22.1 28.7 45.9 120.7 117.3 404.3
Coober Pedy Airport 15 00:00 11 59 5.91 3.3 13 15 1020.6 0 14.0 22.7 30.9 80.5 67.4 229.3
Coonawarra 15 00:00 7.5 86 6.89 5.3 9 9 1019.9 4 16.2 25.2 36.2 94.6 83.4 285.1
Cultana (Defence) 15 00:00 12.6 83 9.18 9.8 26 32 1013.1 0.2 20.9 27.2 42.8 112.4 107.8 371.2
Cummins Airport 15 00:00 12.5 96 10.56 11.9 13 15 1019.5 2.8 23.9 29.9 49.1 129.1 128.0 441.8
Edithburgh 15 00:00 12 83 8.85 9.3 35 37 1017.3 7 20.2 27.0 41.9 110.1 104.5 359.4
Ernabella/Pukatja 15 00:00 14.1 63 7.65 7.2 6 11 1022.1 0 17.5 24.6 36.3 95.0 86.4 296.4
Hindmarsh Island 15 00:00 10.1 97 9.17 9.6 19 20 1017.3 7.4 21.0 28.1 44.3 116.5 111.6 384.2
Keith West 15 00:00 8.2 96 8.04 7.6 11 13 1017.7 10 18.7 26.8 40.5 106.3 98.3 337.3
Kingscote 15 00:00 11.5 86 8.88 9.2 22 24 1018.4 3.6 20.3 27.2 42.4 111.2 105.7 363.5
Kyancutta 14 15:00 17.7 68 10.26 11.7 20 1015.7 0.4 22.9 27.5 44.5 117.1 115.2 397.9
Lameroo Aws 15 00:00 9 97 8.55 8.5 15 19 1016.5 0 19.7 27.4 42.2 110.9 104.3 358.5
Leigh Creek 15 00:00 13.9 67 8.03 7.9 15 20 1018.6 0 18.4 25.2 37.7 98.8 91.2 313.4
Loxton 15 00:00 10.2 96 9.14 9.6 4 6 1015.5 18.4 20.9 28.0 44.1 115.8 110.9 381.6
Marree Airport 15 00:00 10.9 70 6.96 5.7 0 4 1019.4 0 16.2 24.3 34.9 91.3 80.7 276.1
Minlaton Airport 15 00:00 11.2 93 9.43 10.1 26 32 1017.4 0 21.5 28.2 44.8 117.8 113.7 391.6
Minnipa Rs 15 00:00 10.9 92 9.15 9.7 9 11 1020.5 1.2 20.9 28.0 44.0 115.4 110.5 380.2
Moomba Airport 15 00:00 12.4 75 8.2 8.1 13 17 1017.6 0 18.8 25.8 39.1 102.4 95.2 327.0
Mount Gambier 15 00:00 6.1 97 7.09 5.7 0 0 1020.2 2.6 16.7 25.9 37.7 98.6 87.8 300.1
Naracoorte 15 00:00 7.4 90 7.16 5.9 9 11 1019.4 4 16.8 25.6 37.3 97.6 87.2 298.3
Nullarbor 15 00:00 9.7 94 8.67 8.8 11 13 1022.6 0 19.9 27.6 42.7 111.9 105.6 362.9
Oodnadatta 15 00:00 15.1 46 5.93 3.6 11 13 1020.5 0 13.9 21.7 29.4 76.6 64.2 218.8
Padthaway 15 00:00 7.7 94 7.63 6.8 19 22 1013.1 2.6 17.8 26.1 38.8 101.8 92.8 318.2
Pallamana 15 00:00 10.7 100 9.82 10.7 11 15 1016.9 0.2 22.4 29.1 46.8 123.1 120.0 413.5
Parawa West 15 00:00 8.3 99 8.35 8.1 32 37 1016.8 18.8 19.3 27.3 41.8 109.6 102.5 351.9
Parndana 15 00:00 10.1 93 8.8 9.1 13 15 1013.1 0.8 20.2 27.3 42.5 111.8 106.0 364.6
Point Avoid 15 00:00 13.7 83 9.83 10.9 24 33 1019.2 0.2 22.2 28.2 45.2 118.8 115.7 399.0
Port Augusta 15 00:00 11.7 89 9.31 9.9 11 15 1017.8 0 21.2 27.9 44.1 115.7 111.3 383.3
Port Lincoln Airport 15 00:00 13.4 90 10.46 11.8 17 22 1019.3 1.2 23.6 29.4 48.1 126.4 125.1 431.6
Port Pirie Airport Aws 15 00:00 14 91 10.98 12.6 24 26 1016.3 0 24.7 30.0 49.8 131.1 131.2 453.1
Portable Sa Golf (Dew) 14 16:20 15 79 10.13 11.4 4 11 1013.1 47.2 22.8 28.0 45.4 119.4 117.3 404.8
Renmark Airport 15 00:00 9.5 97 8.83 9 0 0 1015 9 20.3 27.6 43.1 113.2 107.4 369.5
Robe Airport 15 00:00 7.3 89 7.04 5.6 7 7 1019.4 2.2 16.5 25.4 36.8 96.4 85.7 292.9
Roxby Downs 15 00:00 13.1 77 8.79 9.2 13 15 1019.5 0 20.0 26.6 41.2 108.1 102.4 352.2
Stenhouse Bay 15 00:00 12 84 8.95 9.4 24 32 1018.6 0.2 20.4 27.2 42.4 111.3 106.0 364.6
Strathalbyn 15 00:00 9.7 98 9.04 9.4 15 15 1017.1 0.8 20.7 28.0 44.0 115.5 110.3 379.6
Tarcoola 15 00:00 10.8 85 8.4 8.4 9 11 1021 0 19.3 26.7 40.9 107.1 100.2 344.3
Whyalla 15 00:00 11.7 90 9.41 10.1 15 17 1017.3 0 21.4 28.0 44.5 116.8 112.7 388.1
Woomera 15 00:00 11 89 8.91 9.3 15 17 1019.7 0 20.4 27.5 42.8 112.4 106.9 367.7
Wudinna Airport 15 00:00 11.2 93 9.43 10.1 13 17 1020.1 3 21.5 28.3 45.0 118.1 113.9 392.4
Yunta 15 00:00 9 83 7.32 6.3 7 9 1016.1 0 17.1 25.3 37.1 97.1 87.3 299.0

Last Refresh: 15-Jun-2024 00:14:10

Bureau of Meteorology